Time;durP1;ratioP1;P1;durP2;ratioP2;P2;SDS_P1;SDS_P2;PMS_P1;PMS_P2;Temp;Humidity;BMP_temperature;BMP_pressure;BME280_temperature;BME280_humidity;BME280_pressure;Samples;Min_cycle;Max_cycle;Signal;HPM_P1;HPM_P2
2023/11/22 00:00:23;;;;;;;0.50;0.50;;;;;;;5.93;100.00;97119.91;29395;197;63009;-58
2023/11/22 00:00:55;;;;;;;0.60;0.60;;;;;;;5.94;100.00;97116.16;29395;234;63005;-61
2023/11/22 00:01:27;;;;;;;0.50;0.50;;;;;;;5.95;100.00;97123.16;29395;208;63009;-61
2023/11/22 00:01:58;;;;;;;0.50;0.50;;;;;;;5.94;100.00;97121.53;29394;226;64009;-63
2023/11/22 00:02:30;;;;;;;0.60;0.60;;;;;;;5.94;100.00;97126.91;29395;215;63009;-66
2023/11/22 00:03:01;;;;;;;0.50;0.50;;;;;;;5.93;100.00;97119.91;29395;219;63004;-64
2023/11/22 00:03:33;;;;;;;0.50;0.50;;;;;;;5.97;100.00;97121.03;29395;239;63008;-59
2023/11/22 00:04:05;;;;;;;0.50;0.50;;;;;;;5.95;100.00;97117.78;29395;236;63004;-63
2023/11/22 00:04:39;;;;;;;0.80;0.80;;;;;;;5.95;100.00;97116.97;29395;319;63009;-63
2023/11/22 00:05:15;;;;;;;0.60;0.60;;;;;;;5.93;100.00;97114.53;29395;248;63005;-59
2023/11/22 00:05:47;;;;;;;0.60;0.60;;;;;;;5.93;100.00;97122.59;29395;251;63009;-70
2023/11/22 00:06:20;;;;;;;0.50;0.50;;;;;;;5.96;100.00;97119.41;29395;199;63005;-65
2023/11/22 00:06:52;;;;;;;1.42;1.42;;;;;;;5.96;100.00;97113.19;29395;233;63009;-60
2023/11/22 00:07:23;;;;;;;0.50;0.50;;;;;;;5.96;100.00;97123.97;29394;213;64009;-60
2023/11/22 00:07:55;;;;;;;0.50;0.50;;;;;;;5.93;100.00;97119.91;29394;243;64013;-61
2023/11/22 00:08:26;;;;;;;0.60;0.60;;;;;;;5.92;100.00;97117.47;29394;238;64009;-61
2023/11/22 00:08:59;;;;;;;0.60;0.60;;;;;;;5.92;100.00;97117.47;29395;219;63009;-61
2023/11/22 00:09:34;;;;;;;0.60;0.60;;;;;;;5.94;100.00;97116.16;29395;222;63004;-62
2023/11/22 00:10:08;;;;;;;0.50;0.50;;;;;;;5.94;100.00;97116.16;29395;215;63009;-61
2023/11/22 00:10:40;;;;;;;0.50;0.50;;;;;;;5.94;100.00;97110.75;29395;237;63004;-59
2023/11/22 00:11:13;;;;;;;0.50;0.50;;;;;;;5.92;100.00;97114.78;29395;244;63008;-60
2023/11/22 00:11:44;;;;;;;0.60;0.60;;;;;;;5.90;100.00;97116.91;29395;255;63013;-60
2023/11/22 00:12:17;;;;;;;0.57;0.57;;;;;;;5.88;100.00;97111.78;29395;255;63009;-62
2023/11/22 00:12:49;;;;;;;0.60;0.60;;;;;;;5.86;100.00;97119.31;29395;221;63005;-61
2023/11/22 00:13:20;;;;;;;0.60;0.60;;;;;;;5.90;100.00;97115.03;29395;219;63009;-63
2023/11/22 00:13:55;;;;;;;0.60;0.60;;;;;;;5.90;100.00;97133.06;29394;282;64009;-60
2023/11/22 00:14:27;;;;;;;0.60;0.60;;;;;;;5.86;100.00;97122.00;29395;219;63009;-61
2023/11/22 00:14:58;;;;;;;0.60;0.60;;;;;;;5.84;100.00;97132.22;29395;224;63005;-64
2023/11/22 00:15:30;;;;;;;0.60;0.60;;;;;;;5.82;100.00;97139.72;29396;202;63009;-65
2023/11/22 00:16:01;;;;;;;0.50;0.50;;;;;;;5.80;100.00;97136.47;29396;255;63004;-65
2023/11/22 00:16:34;;;;;;;0.52;0.52;;;;;;;5.83;100.00;97141.38;29395;203;64013;-64
2023/11/22 00:17:05;;;;;;;3.87;3.60;;;;;;;5.89;100.00;97132.25;29396;218;63004;-67
2023/11/22 00:17:37;;;;;;;0.60;0.60;;;;;;;5.89;100.00;97144.94;29396;196;63009;-65
2023/11/22 00:18:08;;;;;;;0.73;0.73;;;;;;;5.90;100.00;97136.59;29396;249;63004;-67
2023/11/22 00:18:40;;;;;;;0.60;0.60;;;;;;;5.89;100.00;97137.66;29395;322;64013;-63
2023/11/22 00:19:12;;;;;;;0.60;0.60;;;;;;;5.84;100.00;97143.00;29396;225;63009;-66
2023/11/22 00:19:46;;;;;;;0.60;0.60;;;;;;;5.77;100.00;97139.69;29395;207;64014;-63
2023/11/22 00:20:20;;;;;;;0.60;0.60;;;;;;;5.72;100.00;97147.72;29396;360;63005;-69
2023/11/22 00:20:52;;;;;;;0.50;0.50;;;;;;;5.62;100.00;97148.41;29396;227;63009;-71
2023/11/22 00:21:24;;;;;;;0.60;0.60;;;;;;;5.60;100.00;97152.44;29396;221;63005;-67
2023/11/22 00:21:56;;;;;;;0.50;0.50;;;;;;;5.55;100.00;97152.38;29396;329;63009;-68
2023/11/22 00:22:28;;;;;;;0.60;0.60;;;;;;;5.53;100.00;97151.84;29396;238;63005;-68
2023/11/22 00:23:00;;;;;;;0.60;0.60;;;;;;;5.51;100.00;97148.59;29396;280;63009;-68
2023/11/22 00:23:31;;;;;;;0.60;0.60;;;;;;;5.52;100.00;97155.59;29396;274;63005;-70
2023/11/22 00:24:03;;;;;;;0.55;0.55;;;;;;;5.52;100.00;97144.84;29396;209;63019;-68
2023/11/22 00:24:35;;;;;;;0.60;0.60;;;;;;;5.47;100.00;97142.09;29396;254;63008;-70
2023/11/22 00:25:08;;;;;;;0.55;0.55;;;;;;;5.38;100.00;97144.41;29395;245;64013;-67
2023/11/22 00:25:40;;;;;;;0.57;0.57;;;;;;;5.33;100.00;97147.88;29396;253;63004;-68
2023/11/22 00:26:12;;;;;;;0.60;0.60;;;;;;;5.35;100.00;97155.69;29395;226;64013;-69
2023/11/22 00:26:43;;;;;;;0.60;0.60;;;;;;;5.35;100.00;97155.69;29396;291;63004;-74
2023/11/22 00:27:15;;;;;;;0.60;0.60;;;;;;;5.35;100.00;97143.03;29396;244;63009;-72
2023/11/22 00:27:47;;;;;;;0.60;0.60;;;;;;;5.30;100.00;97152.94;29396;291;63005;-69
2023/11/22 00:28:19;;;;;;;0.60;0.60;;;;;;;5.25;100.00;97150.19;29396;203;63017;-69
2023/11/22 00:28:50;;;;;;;0.60;0.60;;;;;;;5.20;100.00;97147.47;29396;348;63005;-69
2023/11/22 00:29:22;;;;;;;0.60;0.60;;;;;;;5.19;100.00;97152.03;29396;334;63024;-66
2023/11/22 00:29:54;;;;;;;0.60;0.60;;;;;;;5.23;100.00;97146.94;29396;320;63008;-66
2023/11/22 00:30:26;;;;;;;0.60;0.60;;;;;;;5.20;100.00;97142.87;29396;319;63017;-69
2023/11/22 00:30:58;;;;;;;0.60;0.60;;;;;;;5.16;100.00;97146.34;29395;220;64009;-68
2023/11/22 00:31:29;;;;;;;0.60;0.60;;;;;;;5.13;100.00;97142.28;29396;202;63009;-67
2023/11/22 00:32:01;;;;;;;0.70;0.70;;;;;;;5.14;100.00;97149.28;29396;290;63004;-71
2023/11/22 00:32:35;;;;;;;0.60;0.60;;;;;;;5.13;100.00;97153.03;29396;202;63009;-68
2023/11/22 00:33:07;;;;;;;0.60;0.60;;;;;;;5.10;100.00;97152.72;29395;202;64009;-66
2023/11/22 00:33:38;;;;;;;0.60;0.60;;;;;;;5.14;100.00;97151.97;29396;204;63008;-71
2023/11/22 00:34:10;;;;;;;0.60;0.60;;;;;;;5.10;100.00;97156.22;29396;204;63009;-68
2023/11/22 00:34:41;;;;;;;0.60;0.60;;;;;;;5.03;100.00;97147.53;29396;321;63009;-67
2023/11/22 00:35:12;;;;;;;0.60;0.60;;;;;;;4.97;100.00;97153.91;29396;210;63005;-69
2023/11/22 00:35:44;;;;;;;0.60;0.60;;;;;;;4.92;100.00;97157.34;29396;208;63009;-67
2023/11/22 00:36:16;;;;;;;0.60;0.60;;;;;;;4.90;100.00;97158.66;29395;205;64009;-66
2023/11/22 00:36:48;;;;;;;0.60;0.60;;;;;;;4.84;100.00;97157.81;29396;203;63009;-68
2023/11/22 00:37:20;;;;;;;0.50;0.50;;;;;;;4.85;100.00;97161.31;29396;221;63005;-65
2023/11/22 00:37:51;;;;;;;0.60;0.60;;;;;;;4.85;100.00;97155.94;29396;210;63019;-69
2023/11/22 00:38:24;;;;;;;0.60;0.60;;;;;;;4.80;100.00;97147.78;29396;218;63005;-67
2023/11/22 00:38:55;;;;;;;0.60;0.60;;;;;;;4.77;100.00;97153.66;29396;253;63009;-67
2023/11/22 00:39:27;;;;;;;0.60;0.60;;;;;;;4.75;100.00;97153.09;29396;221;63004;-67
2023/11/22 00:40:01;;;;;;;0.60;0.60;;;;;;;4.70;100.00;97153.84;29396;213;63009;-67
2023/11/22 00:40:34;;;;;;;0.60;0.60;;;;;;;4.69;100.00;97162.97;29396;224;63004;-67
2023/11/22 00:41:07;;;;;;;0.60;0.60;;;;;;;4.73;100.00;97164.09;29396;202;63009;-73
2023/11/22 00:41:40;;;;;;;0.60;0.60;;;;;;;4.79;100.00;97162.28;29395;291;64008;-71
2023/11/22 00:42:11;;;;;;;0.55;0.55;;;;;;;4.78;100.00;97160.66;29396;285;63013;-64
2023/11/22 00:42:44;;;;;;;0.88;0.88;;;;;;;4.86;100.00;97165.59;29396;281;63005;-61
2023/11/22 00:43:15;;;;;;;0.60;0.60;;;;;;;4.84;100.00;97165.06;29396;220;63009;-68
2023/11/22 00:43:47;;;;;;;0.60;0.60;;;;;;;4.78;100.00;97166.84;29396;301;63005;-65
2023/11/22 00:44:18;;;;;;;0.60;0.60;;;;;;;4.74;100.00;97171.09;29396;280;63009;-68
2023/11/22 00:44:50;;;;;;;0.60;0.60;;;;;;;4.68;100.00;97167.53;29396;221;63005;-67
2023/11/22 00:45:22;;;;;;;0.60;0.60;;;;;;;4.64;100.00;97166.41;29395;216;64013;-67
2023/11/22 00:45:53;;;;;;;0.60;0.60;;;;;;;4.62;100.00;97171.19;29396;260;63004;-66
2023/11/22 00:46:24;;;;;;;0.60;0.60;;;;;;;4.60;100.00;97169.81;29396;212;63009;-66
2023/11/22 00:46:57;;;;;;;0.60;0.60;;;;;;;4.64;100.00;97168.28;29396;210;63004;-68
2023/11/22 00:47:28;;;;;;;0.60;0.60;;;;;;;4.66;100.00;97168.84;29396;202;63009;-67
2023/11/22 00:48:03;;;;;;;0.60;0.60;;;;;;;4.65;100.00;97172.59;29396;212;63004;-66
2023/11/22 00:48:34;;;;;;;0.60;0.60;;;;;;;4.63;100.00;97170.16;29396;269;63008;-68
2023/11/22 00:49:05;;;;;;;0.60;0.60;;;;;;;4.60;100.00;97173.31;29396;241;63004;-68
2023/11/22 00:49:37;;;;;;;0.60;0.60;;;;;;;4.58;100.00;97172.75;29396;228;63009;-67
2023/11/22 00:50:09;;;;;;;0.60;0.60;;;;;;;4.56;100.00;97168.69;29396;228;63005;-66
2023/11/22 00:50:40;;;;;;;0.60;0.60;;;;;;;4.59;100.00;97173.56;29395;231;64013;-65
2023/11/22 00:51:12;;;;;;;0.60;0.60;;;;;;;4.66;100.00;97174.22;29396;220;63005;-62
2023/11/22 00:51:45;;;;;;;0.60;0.60;;;;;;;4.66;100.00;97175.03;29396;269;63009;-70
2023/11/22 00:52:16;;;;;;;0.60;0.60;;;;;;;4.64;100.00;97176.34;29395;240;64009;-67
2023/11/22 00:52:48;;;;;;;0.60;0.60;;;;;;;4.60;100.00;97173.31;29396;223;63022;-68
2023/11/22 00:53:20;;;;;;;0.60;0.60;;;;;;;4.56;100.00;97174.88;29396;218;63004;-68
2023/11/22 00:53:51;;;;;;;0.60;0.60;;;;;;;4.55;100.00;97178.63;29396;202;63009;-67
2023/11/22 00:54:23;;;;;;;0.60;0.60;;;;;;;4.53;100.00;97175.38;29396;277;63017;-68
2023/11/22 00:54:54;;;;;;;0.60;0.60;;;;;;;4.54;100.00;97179.69;29396;310;63004;-68
2023/11/22 00:55:26;;;;;;;0.60;0.60;;;;;;;4.52;100.00;97168.38;29396;233;63004;-69
2023/11/22 00:55:58;;;;;;;0.60;0.60;;;;;;;4.55;100.00;97177.81;29395;273;64013;-67
2023/11/22 00:56:29;;;;;;;0.60;0.60;;;;;;;4.53;100.00;97180.75;29396;208;63005;-68
2023/11/22 00:57:01;;;;;;;0.60;0.60;;;;;;;4.49;100.00;97178.81;29395;214;64014;-67
2023/11/22 00:57:32;;;;;;;0.60;0.60;;;;;;;4.48;100.00;97178.00;29396;273;63005;-70
2023/11/22 00:58:04;;;;;;;0.57;0.57;;;;;;;4.46;100.00;97177.44;29395;205;64013;-65
2023/11/22 00:58:35;;;;;;;0.60;0.60;;;;;;;4.47;100.00;97180.94;29396;225;63005;-69
2023/11/22 00:59:07;;;;;;;0.60;0.60;;;;;;;4.47;100.00;97180.94;29397;220;63009;-67
2023/11/22 00:59:38;;;;;;;0.60;0.60;;;;;;;4.44;100.00;97184.12;29396;228;64005;-67
2023/11/22 01:00:11;;;;;;;0.57;0.57;;;;;;;4.38;100.00;97183.22;29397;228;63018;-68
2023/11/22 01:00:42;;;;;;;0.60;0.60;;;;;;;4.39;100.00;97190.22;29397;236;63004;-63
2023/11/22 01:01:13;;;;;;;0.60;0.60;;;;;;;4.42;100.00;97187.06;29397;229;63009;-71
2023/11/22 01:01:45;;;;;;;0.60;0.60;;;;;;;4.42;100.00;97184.38;29397;220;63004;-64
2023/11/22 01:02:16;;;;;;;0.60;0.60;;;;;;;4.46;100.00;97190.06;29397;219;63009;-68
2023/11/22 01:02:48;;;;;;;0.60;0.60;;;;;;;4.44;100.00;97190.31;29397;211;63016;-68
2023/11/22 01:03:19;;;;;;;0.60;0.60;;;;;;;4.42;100.00;97188.91;29396;196;64013;-66
2023/11/22 01:03:51;;;;;;;0.60;0.60;;;;;;;4.38;100.00;97196.66;29397;198;63005;-62
2023/11/22 01:04:22;;;;;;;0.60;0.60;;;;;;;4.36;100.00;97190.72;29396;212;63009;-66
2023/11/22 01:04:53;;;;;;;0.60;0.60;;;;;;;4.37;100.00;97192.34;29397;197;63018;-66
2023/11/22 01:05:24;;;;;;;0.60;0.60;;;;;;;4.36;100.00;97194.22;29397;202;63019;-63
2023/11/22 01:05:56;;;;;;;0.60;0.60;;;;;;;4.35;100.00;97199.84;29397;202;63005;-65
2023/11/22 01:06:27;;;;;;;0.60;0.60;;;;;;;4.34;100.00;97198.22;29396;290;64013;-67
2023/11/22 01:06:58;;;;;;;0.60;0.60;;;;;;;4.41;100.00;97185.44;29397;241;63005;-61
2023/11/22 01:07:29;;;;;;;0.60;0.60;;;;;;;4.45;100.00;97199.19;29397;224;63025;-69
2023/11/22 01:08:01;;;;;;;0.90;0.90;;;;;;;4.57;100.00;97192.62;29397;289;63009;-66
2023/11/22 01:08:32;;;;;;;0.60;0.60;;;;;;;4.54;100.00;97192.31;29397;222;63009;-70
2023/11/22 01:09:03;;;;;;;0.60;0.60;;;;;;;4.46;100.00;97190.88;29397;214;63004;-73
2023/11/22 01:09:35;;;;;;;0.90;0.90;;;;;;;4.42;100.00;97195.13;29397;277;63009;-72
2023/11/22 01:10:07;;;;;;;0.60;0.60;;;;;;;4.37;100.00;97192.34;29397;229;63004;-69
2023/11/22 01:10:38;;;;;;;0.60;0.60;;;;;;;4.42;100.00;97195.13;29397;218;63008;-64
2023/11/22 01:11:09;;;;;;;1.87;1.87;;;;;;;4.46;100.00;97196.25;29397;240;63004;-62
2023/11/22 01:11:41;;;;;;;0.60;0.60;;;;;;;4.45;100.00;97199.19;29396;214;64014;-68
2023/11/22 01:12:12;;;;;;;0.60;0.60;;;;;;;4.38;100.00;97197.47;29397;293;63007;-69
2023/11/22 01:12:44;;;;;;;0.60;0.60;;;;;;;4.36;100.00;97204.16;29396;241;63009;-71
2023/11/22 01:13:15;;;;;;;0.60;0.60;;;;;;;4.33;100.00;97196.56;29396;240;63005;-71
2023/11/22 01:13:46;;;;;;;0.60;0.60;;;;;;;4.29;100.00;97195.44;29395;240;64013;-65
2023/11/22 01:14:19;;;;;;;0.60;0.60;;;;;;;4.29;100.00;97198.13;29397;207;63005;-65
2023/11/22 01:14:50;;;;;;;0.60;0.60;;;;;;;4.29;100.00;97207.00;29396;283;63009;-69
2023/11/22 01:15:21;;;;;;;0.60;0.60;;;;;;;4.27;100.00;97197.56;29396;242;63005;-71
2023/11/22 01:15:54;;;;;;;0.60;0.60;;;;;;;4.24;100.00;97208.78;29396;202;63009;-69
2023/11/22 01:16:26;;;;;;;0.60;0.60;;;;;;;4.25;100.00;97200.47;29396;205;63004;-62
2023/11/22 01:16:57;;;;;;;0.60;0.60;;;;;;;4.29;100.00;97204.31;29396;196;63009;-71
2023/11/22 01:17:29;;;;;;;0.60;0.60;;;;;;;4.31;100.00;97214.81;29396;292;63004;-70
2023/11/22 01:18:00;;;;;;;0.60;0.60;;;;;;;4.29;100.00;97207.00;29395;224;64013;-68
2023/11/22 01:18:31;;;;;;;0.70;0.70;;;;;;;4.33;100.00;97199.25;29396;212;63011;-65
2023/11/22 01:19:02;;;;;;;0.70;0.70;;;;;;;4.34;100.00;97206.25;29396;297;63009;-68
2023/11/22 01:19:34;;;;;;;0.60;0.60;;;;;;;4.28;100.00;97204.56;29396;233;63005;-68
2023/11/22 01:20:11;;;;;;;0.60;0.60;;;;;;;4.25;100.00;97210.41;29396;249;63009;-67
2023/11/22 01:20:42;;;;;;;0.60;0.60;;;;;;;4.22;100.00;97216.28;29396;245;63005;-68
2023/11/22 01:21:14;;;;;;;0.60;0.60;;;;;;;4.20;100.00;97213.81;29396;232;63009;-60
2023/11/22 01:21:45;;;;;;;0.60;0.60;;;;;;;4.25;100.00;97215.78;29396;236;63005;-70
2023/11/22 01:22:17;;;;;;;1.35;1.35;;;;;;;4.21;100.00;97206.59;29396;307;63009;-68
2023/11/22 01:22:48;;;;;;;0.60;0.60;;;;;;;4.19;100.00;97212.19;29396;202;63005;-69
2023/11/22 01:23:19;;;;;;;0.60;0.60;;;;;;;4.20;100.00;97221.06;29395;225;64013;-68
2023/11/22 01:23:51;;;;;;;0.60;0.60;;;;;;;4.19;100.00;97216.75;29396;214;63015;-69
2023/11/22 01:24:22;;;;;;;0.60;0.60;;;;;;;4.16;100.00;97217.28;29396;214;63009;-70
2023/11/22 01:24:53;;;;;;;0.60;0.60;;;;;;;4.15;100.00;97221.00;29395;234;64009;-70
2023/11/22 01:25:25;;;;;;;0.60;0.60;;;;;;;4.14;100.00;97214.00;29396;248;63009;-68
2023/11/22 01:25:56;;;;;;;0.60;0.60;;;;;;;4.12;100.00;97211.56;29396;208;63004;-69
2023/11/22 01:26:27;;;;;;;0.50;0.50;;;;;;;4.08;100.00;97210.44;29397;200;63008;-67
2023/11/22 01:26:58;;;;;;;0.60;0.60;;;;;;;4.04;100.00;97218.16;29396;282;63015;-68
2023/11/22 01:27:29;;;;;;;0.60;0.60;;;;;;;4.03;100.00;97221.91;29396;303;63021;-69
2023/11/22 01:28:01;;;;;;;0.60;0.60;;;;;;;4.02;100.00;97220.25;29396;217;63005;-70
2023/11/22 01:28:35;;;;;;;0.60;0.60;;;;;;;4.04;100.00;97218.16;29396;274;63009;-69
2023/11/22 01:29:06;;;;;;;0.60;0.60;;;;;;;4.04;100.00;97220.84;29395;232;64005;-71
2023/11/22 01:29:37;;;;;;;0.60;0.60;;;;;;;4.02;100.00;97222.12;29396;244;63009;-68
2023/11/22 01:30:09;;;;;;;0.60;0.60;;;;;;;4.02;100.00;97222.94;29396;198;63005;-67
2023/11/22 01:30:41;;;;;;;0.60;0.60;;;;;;;4.08;100.00;97225.72;29396;217;63009;-70
2023/11/22 01:31:14;;;;;;;0.60;0.60;;;;;;;4.07;100.00;97224.09;29396;202;63004;-71
2023/11/22 01:31:46;;;;;;;0.70;0.70;;;;;;;4.05;100.00;97221.66;29396;272;63009;-69
2023/11/22 01:32:17;;;;;;;0.60;0.60;;;;;;;4.03;100.00;97223.75;29396;217;63006;-72
2023/11/22 01:32:51;;;;;;;0.60;0.60;;;;;;;3.98;100.00;97227.16;29395;273;64013;-70
2023/11/22 01:33:23;;;;;;;0.60;0.60;;;;;;;4.02;100.00;97222.94;29396;250;63004;-63
2023/11/22 01:33:55;;;;;;;0.50;0.50;;;;;;;4.03;100.00;97229.94;29396;196;63008;-68
2023/11/22 01:34:26;;;;;;;0.60;0.60;;;;;;;4.01;100.00;97229.38;29396;228;63005;-69
2023/11/22 01:34:58;;;;;;;0.65;0.65;;;;;;;3.98;100.00;97232.53;29396;221;63025;-69
2023/11/22 01:35:30;;;;;;;0.60;0.60;;;;;;;3.94;100.00;97231.41;29395;250;64009;-69
2023/11/22 01:36:01;;;;;;;0.60;0.60;;;;;;;3.95;100.00;97226.84;29396;218;63009;-68
2023/11/22 01:36:33;;;;;;;0.60;0.60;;;;;;;3.97;100.00;97228.22;29396;237;63005;-67
2023/11/22 01:37:04;;;;;;;0.60;0.60;;;;;;;4.00;100.00;97241.16;29396;198;63009;-70
2023/11/22 01:37:36;;;;;;;0.60;0.60;;;;;;;4.03;100.00;97231.81;29396;238;63005;-68
2023/11/22 01:38:07;;;;;;;0.57;0.57;;;;;;;4.01;100.00;97240.13;29395;204;64013;-71
2023/11/22 01:38:39;;;;;;;0.60;0.60;;;;;;;4.00;100.00;97240.34;29396;196;63004;-70
2023/11/22 01:39:13;;;;;;;0.60;0.60;;;;;;;3.95;100.00;97234.91;29396;262;63025;-68
2023/11/22 01:39:46;;;;;;;0.60;0.60;;;;;;;3.90;100.00;97235.63;29396;284;63004;-67
2023/11/22 01:40:19;;;;;;;0.60;0.60;;;;;;;3.88;100.00;97240.41;29396;244;63009;-67
2023/11/22 01:40:51;;;;;;;0.60;0.60;;;;;;;3.87;100.00;97246.84;29395;242;64008;-66
2023/11/22 01:41:24;;;;;;;0.60;0.60;;;;;;;3.82;100.00;97243.25;29396;218;63008;-67
2023/11/22 01:41:56;;;;;;;0.60;0.60;;;;;;;3.80;100.00;97237.31;29396;267;63005;-68
2023/11/22 01:42:27;;;;;;;0.60;0.60;;;;;;;3.79;100.00;97239.19;29396;285;63009;-71
2023/11/22 01:42:58;;;;;;;0.60;0.60;;;;;;;3.79;100.00;97244.56;29396;237;63012;-67
2023/11/22 01:43:31;;;;;;;0.60;0.60;;;;;;;3.74;100.00;97247.16;29396;219;63009;-69
2023/11/22 01:44:03;;;;;;;0.60;0.60;;;;;;;3.73;100.00;97244.72;29396;255;63005;-68
2023/11/22 01:44:34;;;;;;;0.60;0.60;;;;;;;3.68;100.00;97250.78;29396;228;63009;-67
2023/11/22 01:45:10;;;;;;;0.60;0.60;;;;;;;3.68;100.00;97250.78;29396;196;63005;-67
2023/11/22 01:45:41;;;;;;;0.60;0.60;;;;;;;3.64;100.00;97244.28;29396;237;63009;-70
2023/11/22 01:46:32;;;;;;;0.60;0.60;;;;;;;3.65;100.00;97251.28;29395;301;64009;-71
2023/11/22 01:47:06;;;;;;;0.60;0.60;;;;;;;3.67;100.00;97241.13;29396;206;63026;-70
2023/11/22 01:47:38;;;;;;;0.60;0.60;;;;;;;3.66;100.00;97247.53;29396;196;63004;-69
2023/11/22 01:48:12;;;;;;;0.60;0.60;;;;;;;3.64;100.00;97246.94;29396;277;63009;-68
2023/11/22 01:48:43;;;;;;;0.60;0.60;;;;;;;3.60;100.00;97241.25;29396;209;63004;-69
2023/11/22 01:49:14;;;;;;;0.70;0.70;;;;;;;3.59;100.00;97253.03;29396;196;63017;-70
2023/11/22 01:49:46;;;;;;;0.60;0.60;;;;;;;3.59;100.00;97250.34;29396;197;63005;-69
2023/11/22 01:50:18;;;;;;;0.55;0.55;;;;;;;3.59;100.00;97252.22;29396;225;63019;-69
2023/11/22 01:50:51;;;;;;;0.60;0.60;;;;;;;3.59;100.00;97249.53;29396;207;63005;-61
2023/11/22 01:51:24;;;;;;;0.70;0.70;;;;;;;3.64;100.00;97252.31;29395;216;64013;-69
2023/11/22 01:51:56;;;;;;;0.60;0.60;;;;;;;3.68;100.00;97258.84;29396;224;63013;-69
2023/11/22 01:52:27;;;;;;;0.60;0.60;;;;;;;3.66;100.00;97260.94;29396;226;63009;-62
2023/11/22 01:53:00;;;;;;;0.60;0.60;;;;;;;3.73;100.00;97261.62;29395;228;64009;-69
2023/11/22 01:53:32;;;;;;;0.50;0.50;;;;;;;3.72;100.00;97257.31;29396;270;63009;-69
2023/11/22 01:54:06;;;;;;;0.60;0.60;;;;;;;3.72;100.00;97256.50;29396;237;63004;-67
2023/11/22 01:54:38;;;;;;;0.60;0.60;;;;;;;3.71;100.00;97258.38;29396;268;63009;-67
2023/11/22 01:55:10;;;;;;;0.50;0.50;;;;;;;3.66;100.00;97256.41;29396;250;63004;-69
2023/11/22 01:55:43;;;;;;;0.60;0.60;;;;;;;3.65;100.00;97264.69;29396;300;63008;-69
2023/11/22 01:56:17;;;;;;;0.52;0.52;;;;;;;3.61;100.00;97263.53;29396;303;63011;-69
2023/11/22 01:56:50;;;;;;;0.60;0.60;;;;;;;3.59;100.00;97265.63;29396;297;63009;-68
2023/11/22 01:57:21;;;;;;;0.60;0.60;;;;;;;3.57;100.00;97268.56;29396;205;63005;-63
2023/11/22 01:57:53;;;;;;;0.60;0.60;;;;;;;3.55;100.00;97265.31;29395;253;64013;-68
2023/11/22 01:58:26;;;;;;;0.60;0.60;;;;;;;3.56;100.00;97263.44;29396;198;63005;-67
2023/11/22 01:59:00;;;;;;;2.12;1.87;;;;;;;3.57;100.00;97267.75;29396;209;63009;-67
2023/11/22 01:59:32;;;;;;;0.70;0.70;;;;;;;3.59;100.00;97274.50;29396;346;63005;-69
2023/11/22 02:00:07;;;;;;;0.60;0.60;;;;;;;3.61;100.00;97269.72;29396;213;63009;-66
2023/11/22 02:00:50;;;;;;;0.60;0.60;;;;;;;3.69;100.00;97273.88;29396;210;63004;-68
2023/11/22 02:01:22;;;;;;;0.50;0.50;;;;;;;3.70;100.00;97272.84;29397;263;63009;-66
2023/11/22 02:01:58;;;;;;;0.60;0.60;;;;;;;3.68;100.00;97272.25;29397;272;63004;-67
2023/11/22 02:02:36;;;;;;;0.60;0.60;;;;;;;3.63;100.00;97272.97;29397;287;63009;-68
2023/11/22 02:03:07;;;;;;;0.60;0.60;;;;;;;3.63;100.00;97274.84;29395;287;64008;-69
2023/11/22 02:03:39;;;;;;;0.60;0.60;;;;;;;3.61;100.00;97271.59;29397;266;63009;-66
2023/11/22 02:04:12;;;;;;;0.60;0.60;;;;;;;3.63;100.00;97272.16;29397;222;63005;-67
2023/11/22 02:04:44;;;;;;;0.60;0.60;;;;;;;3.60;100.00;97278.00;29397;237;63009;-68
2023/11/22 02:05:15;;;;;;;0.60;0.60;;;;;;;3.59;100.00;97277.19;29397;235;63005;-65
2023/11/22 02:05:47;;;;;;;0.60;0.60;;;;;;;3.57;100.00;97281.16;29395;202;63009;-66
2023/11/22 02:06:19;;;;;;;0.65;0.65;;;;;;;3.52;100.00;97278.38;29395;204;63005;-69
2023/11/22 02:06:51;;;;;;;0.60;0.60;;;;;;;3.54;100.00;97278.94;29395;249;63009;-68
2023/11/22 02:07:23;;;;;;;0.60;0.60;;;;;;;3.57;100.00;97281.16;29396;218;63005;-69
2023/11/22 02:07:55;;;;;;;0.60;0.60;;;;;;;3.56;100.00;97282.22;29393;202;64013;-66
2023/11/22 02:08:28;;;;;;;0.60;0.60;;;;;;;3.53;100.00;97275.44;29395;286;63004;-67
2023/11/22 02:08:59;;;;;;;0.60;0.60;;;;;;;3.51;100.00;97282.09;29395;259;63019;-68
2023/11/22 02:09:31;;;;;;;0.60;0.60;;;;;;;3.45;100.00;97277.72;29395;294;63004;-67
2023/11/22 02:10:07;;;;;;;0.60;0.60;;;;;;;3.41;100.00;97280.06;29395;241;63009;-66
2023/11/22 02:10:39;;;;;;;0.60;0.60;;;;;;;3.41;100.00;97281.94;29395;250;63004;-68
2023/11/22 02:11:10;;;;;;;0.60;0.60;;;;;;;3.41;100.00;97289.97;29395;217;63009;-65
2023/11/22 02:11:42;;;;;;;0.60;0.60;;;;;;;3.48;100.00;97291.44;29395;233;63005;-70
2023/11/22 02:12:14;;;;;;;0.60;0.60;;;;;;;3.53;100.00;97285.38;29395;211;63009;-65
2023/11/22 02:12:45;;;;;;;0.70;0.70;;;;;;;3.55;100.00;97285.94;29393;230;64009;-65
2023/11/22 02:13:16;;;;;;;0.60;0.60;;;;;;;3.53;100.00;97293.41;29393;255;64013;-67
2023/11/22 02:13:51;;;;;;;0.60;0.60;;;;;;;3.49;100.00;97294.94;29395;313;63005;-68
2023/11/22 02:14:23;;;;;;;0.60;0.60;;;;;;;3.44;100.00;97292.19;29395;208;63017;-70
2023/11/22 02:14:54;;;;;;;0.60;0.60;;;;;;;3.39;100.00;97294.75;29395;234;63010;-67
2023/11/22 02:15:25;;;;;;;0.60;0.60;;;;;;;3.37;100.00;97295.81;29395;202;63009;-68
2023/11/22 02:15:59;;;;;;;0.60;0.60;;;;;;;3.36;100.00;97296.88;29395;244;63004;-66
2023/11/22 02:16:30;;;;;;;0.60;0.60;;;;;;;3.35;100.00;97297.09;29395;243;63009;-59
2023/11/22 02:17:02;;;;;;;0.60;0.60;;;;;;;3.33;100.00;97288.47;29395;223;63004;-60
2023/11/22 02:17:34;;;;;;;0.60;0.60;;;;;;;3.33;100.00;97299.19;29395;202;63009;-67
2023/11/22 02:18:06;;;;;;;0.60;0.60;;;;;;;3.30;100.00;97294.31;29395;210;63004;-63
2023/11/22 02:18:38;;;;;;;0.60;0.60;;;;;;;3.28;100.00;97299.09;29393;208;64014;-67
2023/11/22 02:19:16;;;;;;;0.60;0.60;;;;;;;3.29;100.00;97298.03;29395;219;63005;-67
2023/11/22 02:19:48;;;;;;;0.70;0.70;;;;;;;3.26;100.00;97299.31;29395;241;63009;-64
2023/11/22 02:20:20;;;;;;;0.60;0.60;;;;;;;3.29;100.00;97293.50;29395;224;63005;-61
2023/11/22 02:20:51;;;;;;;0.98;0.98;;;;;;;3.33;100.00;97299.19;29395;197;63009;-71
2023/11/22 02:21:24;;;;;;;0.60;0.60;;;;;;;3.37;100.00;97298.50;29395;227;63011;-62
2023/11/22 02:21:56;;;;;;;0.60;0.60;;;;;;;3.39;100.00;97305.50;29395;266;63009;-67
2023/11/22 02:22:27;;;;;;;0.60;0.60;;;;;;;3.35;100.00;97303.28;29395;218;63005;-68
2023/11/22 02:23:11;;;;;;;0.60;0.60;;;;;;;3.35;100.00;97305.97;29395;222;63009;-67
2023/11/22 02:23:42;;;;;;;0.60;0.60;;;;;;;3.31;100.00;97302.13;29393;229;64009;-65
2023/11/22 02:24:14;;;;;;;0.60;0.60;;;;;;;3.36;100.00;97298.72;29395;226;63009;-67
2023/11/22 02:24:45;;;;;;;0.60;0.60;;;;;;;3.35;100.00;97302.47;29395;228;63011;-60
2023/11/22 02:25:17;;;;;;;0.60;0.60;;;;;;;3.28;100.00;97307.94;29395;274;63008;-71
2023/11/22 02:25:48;;;;;;;0.60;0.60;;;;;;;3.28;100.00;97307.12;29395;233;63007;-70
2023/11/22 02:26:20;;;;;;;0.60;0.60;;;;;;;3.26;100.00;97310.06;29395;205;63009;-69
2023/11/22 02:26:52;;;;;;;0.95;0.95;;;;;;;3.28;100.00;97305.28;29395;226;63005;-60
2023/11/22 02:27:23;;;;;;;0.60;0.60;;;;;;;3.31;100.00;97307.47;29395;356;63009;-64
2023/11/22 02:27:54;;;;;;;1.17;1.08;;;;;;;3.33;100.00;97304.56;29395;217;63005;-67
2023/11/22 02:28:26;;;;;;;0.50;0.50;;;;;;;3.34;100.00;97307.00;29393;265;64013;-62
2023/11/22 02:28:58;;;;;;;0.60;0.60;;;;;;;3.32;100.00;97306.44;29393;224;64009;-71
2023/11/22 02:29:30;;;;;;;0.60;0.60;;;;;;;3.36;100.00;97304.09;29395;227;63009;-67
2023/11/22 02:30:05;;;;;;;0.60;0.60;;;;;;;3.35;100.00;97303.28;29395;227;63005;-70
2023/11/22 02:30:37;;;;;;;0.70;0.70;;;;;;;3.32;100.00;97309.09;29395;203;63009;-66
2023/11/22 02:31:08;;;;;;;0.60;0.60;;;;;;;3.26;100.00;97307.38;29395;209;63004;-63
2023/11/22 02:31:45;;;;;;;0.60;0.60;;;;;;;3.25;100.00;97302.25;29395;238;63009;-66
2023/11/22 02:32:18;;;;;;;0.62;0.62;;;;;;;3.21;100.00;97304.56;29395;209;63004;-66
2023/11/22 02:32:49;;;;;;;0.60;0.60;;;;;;;3.21;100.00;97306.44;29395;221;63008;-68
2023/11/22 02:33:21;;;;;;;0.70;0.70;;;;;;;3.25;100.00;97308.41;29395;208;63004;-69